sensor_id;sensor_type;location;lat;lon;timestamp;P1;durP1;ratioP1;P2;durP2;ratioP2
63005;SDS011;53704;52.532;6.426;2023-01-20T00:02:24;10.13;;;7.78;;
63005;SDS011;53704;52.532;6.426;2023-01-20T00:04:50;8.18;;;7.28;;
63005;SDS011;53704;52.532;6.426;2023-01-20T00:07:15;7.93;;;7.32;;
63005;SDS011;53704;52.532;6.426;2023-01-20T00:09:40;8.63;;;7.82;;
63005;SDS011;53704;52.532;6.426;2023-01-20T00:12:06;8.35;;;7.50;;
63005;SDS011;53704;52.532;6.426;2023-01-20T00:14:32;8.48;;;7.60;;
63005;SDS011;53704;52.532;6.426;2023-01-20T00:16:57;8.73;;;7.35;;
63005;SDS011;53704;52.532;6.426;2023-01-20T00:19:24;8.07;;;7.28;;
63005;SDS011;53704;52.532;6.426;2023-01-20T00:21:51;9.93;;;7.53;;
63005;SDS011;53704;52.532;6.426;2023-01-20T00:24:16;9.70;;;7.88;;
63005;SDS011;53704;52.532;6.426;2023-01-20T00:26:42;7.85;;;7.15;;
63005;SDS011;53704;52.532;6.426;2023-01-20T00:29:07;8.33;;;7.57;;
63005;SDS011;53704;52.532;6.426;2023-01-20T00:31:33;10.23;;;7.17;;
63005;SDS011;53704;52.532;6.426;2023-01-20T00:34:00;7.72;;;7.15;;
63005;SDS011;53704;52.532;6.426;2023-01-20T00:36:26;12.60;;;6.97;;
63005;SDS011;53704;52.532;6.426;2023-01-20T00:38:53;8.38;;;7.57;;
63005;SDS011;53704;52.532;6.426;2023-01-20T00:41:19;10.20;;;7.35;;
63005;SDS011;53704;52.532;6.426;2023-01-20T00:43:45;12.90;;;8.63;;
63005;SDS011;53704;52.532;6.426;2023-01-20T00:46:10;10.48;;;8.23;;
63005;SDS011;53704;52.532;6.426;2023-01-20T00:48:36;13.20;;;8.88;;
63005;SDS011;53704;52.532;6.426;2023-01-20T00:51:03;9.98;;;8.50;;
63005;SDS011;53704;52.532;6.426;2023-01-20T00:53:30;9.75;;;8.27;;
63005;SDS011;53704;52.532;6.426;2023-01-20T00:55:56;14.73;;;10.07;;
63005;SDS011;53704;52.532;6.426;2023-01-20T00:58:21;13.32;;;10.05;;
63005;SDS011;53704;52.532;6.426;2023-01-20T01:00:47;10.70;;;9.33;;
63005;SDS011;53704;52.532;6.426;2023-01-20T01:03:14;11.18;;;9.65;;
63005;SDS011;53704;52.532;6.426;2023-01-20T01:05:40;11.18;;;10.18;;
63005;SDS011;53704;52.532;6.426;2023-01-20T01:08:05;13.18;;;10.60;;
63005;SDS011;53704;52.532;6.426;2023-01-20T01:10:31;12.00;;;10.15;;
63005;SDS011;53704;52.532;6.426;2023-01-20T01:13:00;11.30;;;9.05;;
63005;SDS011;53704;52.532;6.426;2023-01-20T01:15:26;9.82;;;8.80;;
63005;SDS011;53704;52.532;6.426;2023-01-20T01:17:53;10.45;;;9.32;;
63005;SDS011;53704;52.532;6.426;2023-01-20T01:20:20;11.73;;;9.07;;
63005;SDS011;53704;52.532;6.426;2023-01-20T01:22:46;12.53;;;10.10;;
63005;SDS011;53704;52.532;6.426;2023-01-20T01:25:11;10.65;;;9.68;;
63005;SDS011;53704;52.532;6.426;2023-01-20T01:27:37;11.82;;;9.95;;
63005;SDS011;53704;52.532;6.426;2023-01-20T01:30:02;14.45;;;11.48;;
63005;SDS011;53704;52.532;6.426;2023-01-20T01:32:28;15.77;;;11.57;;
63005;SDS011;53704;52.532;6.426;2023-01-20T01:34:54;11.10;;;9.98;;
63005;SDS011;53704;52.532;6.426;2023-01-20T01:37:19;11.70;;;10.60;;
63005;SDS011;53704;52.532;6.426;2023-01-20T01:39:45;14.90;;;9.83;;
63005;SDS011;53704;52.532;6.426;2023-01-20T01:42:11;17.15;;;10.25;;
63005;SDS011;53704;52.532;6.426;2023-01-20T01:44:37;10.80;;;9.25;;
63005;SDS011;53704;52.532;6.426;2023-01-20T01:47:23;10.00;;;8.23;;
63005;SDS011;53704;52.532;6.426;2023-01-20T01:49:49;9.83;;;8.93;;
63005;SDS011;53704;52.532;6.426;2023-01-20T01:52:15;10.48;;;9.45;;
63005;SDS011;53704;52.532;6.426;2023-01-20T01:54:42;10.20;;;9.15;;
63005;SDS011;53704;52.532;6.426;2023-01-20T01:57:09;9.77;;;8.85;;
63005;SDS011;53704;52.532;6.426;2023-01-20T01:59:36;9.52;;;8.77;;
63005;SDS011;53704;52.532;6.426;2023-01-20T02:02:02;11.27;;;8.35;;
63005;SDS011;53704;52.532;6.426;2023-01-20T02:04:28;9.52;;;8.68;;
63005;SDS011;53704;52.532;6.426;2023-01-20T02:06:57;9.30;;;8.55;;
63005;SDS011;53704;52.532;6.426;2023-01-20T02:09:27;9.48;;;7.88;;
63005;SDS011;53704;52.532;6.426;2023-01-20T02:11:58;9.18;;;8.43;;
63005;SDS011;53704;52.532;6.426;2023-01-20T02:14:30;9.47;;;8.47;;
63005;SDS011;53704;52.532;6.426;2023-01-20T02:17:03;10.15;;;9.15;;
63005;SDS011;53704;52.532;6.426;2023-01-20T02:33:47;9.33;;;8.43;;
63005;SDS011;53704;52.532;6.426;2023-01-20T02:36:01;8.60;;;7.78;;
63005;SDS011;53704;52.532;6.426;2023-01-20T02:42:01;10.20;;;8.60;;
63005;SDS011;53704;52.532;6.426;2023-01-20T02:44:39;9.57;;;8.85;;
63005;SDS011;53704;52.532;6.426;2023-01-20T02:49:55;9.05;;;8.27;;
63005;SDS011;53704;52.532;6.426;2023-01-20T02:52:26;9.95;;;8.80;;
63005;SDS011;53704;52.532;6.426;2023-01-20T02:54:56;11.65;;;9.77;;
63005;SDS011;53704;52.532;6.426;2023-01-20T02:57:27;10.18;;;9.15;;
63005;SDS011;53704;52.532;6.426;2023-01-20T03:00:00;11.13;;;8.87;;
63005;SDS011;53704;52.532;6.426;2023-01-20T03:02:32;11.35;;;8.60;;
63005;SDS011;53704;52.532;6.426;2023-01-20T03:05:04;12.30;;;9.48;;
63005;SDS011;53704;52.532;6.426;2023-01-20T03:07:34;11.18;;;10.10;;
63005;SDS011;53704;52.532;6.426;2023-01-20T03:10:03;16.35;;;11.32;;
63005;SDS011;53704;52.532;6.426;2023-01-20T03:12:51;13.60;;;11.00;;
63005;SDS011;53704;52.532;6.426;2023-01-20T03:15:23;15.68;;;11.65;;
63005;SDS011;53704;52.532;6.426;2023-01-20T03:17:56;12.75;;;10.25;;
63005;SDS011;53704;52.532;6.426;2023-01-20T03:20:22;16.33;;;12.68;;
63005;SDS011;53704;52.532;6.426;2023-01-20T03:22:48;19.10;;;13.63;;
63005;SDS011;53704;52.532;6.426;2023-01-20T03:25:14;20.42;;;14.90;;
63005;SDS011;53704;52.532;6.426;2023-01-20T03:27:41;18.53;;;14.77;;
63005;SDS011;53704;52.532;6.426;2023-01-20T03:30:11;20.75;;;15.77;;
63005;SDS011;53704;52.532;6.426;2023-01-20T03:32:38;23.17;;;14.88;;
63005;SDS011;53704;52.532;6.426;2023-01-20T03:35:05;22.67;;;14.63;;
63005;SDS011;53704;52.532;6.426;2023-01-20T03:37:31;20.52;;;14.82;;
63005;SDS011;53704;52.532;6.426;2023-01-20T03:39:56;25.27;;;15.82;;
63005;SDS011;53704;52.532;6.426;2023-01-20T03:42:30;19.98;;;14.98;;
63005;SDS011;53704;52.532;6.426;2023-01-20T03:58:38;23.50;;;16.42;;
63005;SDS011;53704;52.532;6.426;2023-01-20T04:01:07;21.38;;;14.18;;
63005;SDS011;53704;52.532;6.426;2023-01-20T04:03:36;24.10;;;15.75;;
63005;SDS011;53704;52.532;6.426;2023-01-20T04:06:04;23.80;;;15.10;;
63005;SDS011;53704;52.532;6.426;2023-01-20T04:08:34;25.42;;;15.55;;
63005;SDS011;53704;52.532;6.426;2023-01-20T04:11:04;29.58;;;16.83;;
63005;SDS011;53704;52.532;6.426;2023-01-20T04:13:32;24.33;;;15.57;;
63005;SDS011;53704;52.532;6.426;2023-01-20T04:15:58;25.90;;;15.98;;
63005;SDS011;53704;52.532;6.426;2023-01-20T04:18:25;22.60;;;16.27;;
63005;SDS011;53704;52.532;6.426;2023-01-20T04:20:55;20.08;;;15.05;;
63005;SDS011;53704;52.532;6.426;2023-01-20T04:23:29;21.30;;;15.35;;
63005;SDS011;53704;52.532;6.426;2023-01-20T04:25:59;29.08;;;17.15;;
63005;SDS011;53704;52.532;6.426;2023-01-20T04:28:25;27.75;;;16.13;;
63005;SDS011;53704;52.532;6.426;2023-01-20T04:30:51;21.73;;;16.40;;
63005;SDS011;53704;52.532;6.426;2023-01-20T04:33:16;30.58;;;16.33;;
63005;SDS011;53704;52.532;6.426;2023-01-20T04:35:42;21.08;;;15.73;;
63005;SDS011;53704;52.532;6.426;2023-01-20T04:38:07;28.63;;;18.42;;
63005;SDS011;53704;52.532;6.426;2023-01-20T04:40:33;24.70;;;17.42;;
63005;SDS011;53704;52.532;6.426;2023-01-20T04:42:58;19.77;;;16.48;;
63005;SDS011;53704;52.532;6.426;2023-01-20T04:45:24;25.98;;;17.75;;
63005;SDS011;53704;52.532;6.426;2023-01-20T04:47:49;27.20;;;18.20;;
63005;SDS011;53704;52.532;6.426;2023-01-20T04:50:15;30.17;;;19.08;;
63005;SDS011;53704;52.532;6.426;2023-01-20T04:52:41;30.55;;;19.80;;
63005;SDS011;53704;52.532;6.426;2023-01-20T04:55:07;25.17;;;18.98;;
63005;SDS011;53704;52.532;6.426;2023-01-20T04:57:34;28.35;;;19.88;;
63005;SDS011;53704;52.532;6.426;2023-01-20T04:59:59;30.53;;;19.57;;
63005;SDS011;53704;52.532;6.426;2023-01-20T05:02:24;27.00;;;19.23;;
63005;SDS011;53704;52.532;6.426;2023-01-20T05:04:50;32.13;;;20.02;;
63005;SDS011;53704;52.532;6.426;2023-01-20T05:07:15;32.35;;;19.80;;
63005;SDS011;53704;52.532;6.426;2023-01-20T05:09:41;35.17;;;20.70;;
63005;SDS011;53704;52.532;6.426;2023-01-20T05:12:06;32.53;;;20.55;;
63005;SDS011;53704;52.532;6.426;2023-01-20T05:14:32;34.53;;;20.17;;
63005;SDS011;53704;52.532;6.426;2023-01-20T05:16:57;34.33;;;20.08;;
63005;SDS011;53704;52.532;6.426;2023-01-20T05:19:23;31.42;;;20.77;;
63005;SDS011;53704;52.532;6.426;2023-01-20T05:21:48;32.55;;;20.77;;
63005;SDS011;53704;52.532;6.426;2023-01-20T05:24:14;35.03;;;21.42;;
63005;SDS011;53704;52.532;6.426;2023-01-20T05:26:39;36.58;;;21.05;;
63005;SDS011;53704;52.532;6.426;2023-01-20T05:29:04;32.97;;;20.80;;
63005;SDS011;53704;52.532;6.426;2023-01-20T05:31:30;35.40;;;21.58;;
63005;SDS011;53704;52.532;6.426;2023-01-20T05:33:56;32.58;;;22.02;;
63005;SDS011;53704;52.532;6.426;2023-01-20T05:36:21;32.28;;;21.90;;
63005;SDS011;53704;52.532;6.426;2023-01-20T05:38:47;35.73;;;21.00;;
63005;SDS011;53704;52.532;6.426;2023-01-20T05:41:12;33.85;;;21.38;;
63005;SDS011;53704;52.532;6.426;2023-01-20T05:43:37;32.53;;;21.17;;
63005;SDS011;53704;52.532;6.426;2023-01-20T05:46:03;36.78;;;22.58;;
63005;SDS011;53704;52.532;6.426;2023-01-20T05:48:29;37.55;;;22.25;;
63005;SDS011;53704;52.532;6.426;2023-01-20T05:50:55;39.67;;;20.85;;
63005;SDS011;53704;52.532;6.426;2023-01-20T05:53:20;37.40;;;22.08;;
63005;SDS011;53704;52.532;6.426;2023-01-20T05:55:46;38.47;;;22.95;;
63005;SDS011;53704;52.532;6.426;2023-01-20T05:58:12;34.25;;;21.77;;
63005;SDS011;53704;52.532;6.426;2023-01-20T06:00:38;38.90;;;23.27;;
63005;SDS011;53704;52.532;6.426;2023-01-20T06:03:03;38.78;;;23.48;;
63005;SDS011;53704;52.532;6.426;2023-01-20T06:05:29;40.17;;;21.98;;
63005;SDS011;53704;52.532;6.426;2023-01-20T06:07:55;35.97;;;22.13;;
63005;SDS011;53704;52.532;6.426;2023-01-20T06:10:21;45.92;;;24.27;;
63005;SDS011;53704;52.532;6.426;2023-01-20T06:12:52;41.65;;;24.35;;
63005;SDS011;53704;52.532;6.426;2023-01-20T06:15:19;44.10;;;25.75;;
63005;SDS011;53704;52.532;6.426;2023-01-20T06:17:45;39.17;;;22.92;;
63005;SDS011;53704;52.532;6.426;2023-01-20T06:20:11;44.88;;;24.55;;
63005;SDS011;53704;52.532;6.426;2023-01-20T06:22:36;50.00;;;24.50;;
63005;SDS011;53704;52.532;6.426;2023-01-20T06:25:02;37.95;;;23.30;;
63005;SDS011;53704;52.532;6.426;2023-01-20T06:27:28;42.72;;;24.08;;
63005;SDS011;53704;52.532;6.426;2023-01-20T06:29:54;37.95;;;23.67;;
63005;SDS011;53704;52.532;6.426;2023-01-20T06:32:19;43.67;;;24.02;;
63005;SDS011;53704;52.532;6.426;2023-01-20T06:34:45;43.63;;;25.42;;
63005;SDS011;53704;52.532;6.426;2023-01-20T06:37:10;41.05;;;24.27;;
63005;SDS011;53704;52.532;6.426;2023-01-20T06:39:36;41.53;;;23.95;;
63005;SDS011;53704;52.532;6.426;2023-01-20T06:42:01;40.50;;;24.17;;
63005;SDS011;53704;52.532;6.426;2023-01-20T06:44:27;46.05;;;25.13;;
63005;SDS011;53704;52.532;6.426;2023-01-20T06:46:52;47.75;;;24.92;;
63005;SDS011;53704;52.532;6.426;2023-01-20T06:49:18;46.10;;;25.30;;
63005;SDS011;53704;52.532;6.426;2023-01-20T06:51:43;46.78;;;24.33;;
63005;SDS011;53704;52.532;6.426;2023-01-20T06:54:09;44.22;;;24.95;;
63005;SDS011;53704;52.532;6.426;2023-01-20T06:56:34;55.30;;;26.55;;
63005;SDS011;53704;52.532;6.426;2023-01-20T06:59:00;51.67;;;27.30;;
63005;SDS011;53704;52.532;6.426;2023-01-20T07:01:29;50.10;;;25.80;;
63005;SDS011;53704;52.532;6.426;2023-01-20T07:03:57;47.03;;;26.15;;
63005;SDS011;53704;52.532;6.426;2023-01-20T07:08:56;47.33;;;26.25;;
63005;SDS011;53704;52.532;6.426;2023-01-20T07:11:22;48.03;;;25.25;;
63005;SDS011;53704;52.532;6.426;2023-01-20T07:13:48;51.53;;;27.33;;
63005;SDS011;53704;52.532;6.426;2023-01-20T07:16:13;50.85;;;27.13;;
63005;SDS011;53704;52.532;6.426;2023-01-20T07:18:39;57.20;;;28.85;;
63005;SDS011;53704;52.532;6.426;2023-01-20T07:21:04;52.75;;;27.90;;
63005;SDS011;53704;52.532;6.426;2023-01-20T07:23:31;47.55;;;25.80;;
63005;SDS011;53704;52.532;6.426;2023-01-20T07:26:04;60.78;;;29.10;;
63005;SDS011;53704;52.532;6.426;2023-01-20T07:28:32;55.85;;;28.00;;
63005;SDS011;53704;52.532;6.426;2023-01-20T07:33:36;71.07;;;31.42;;
63005;SDS011;53704;52.532;6.426;2023-01-20T07:36:02;65.97;;;30.35;;
63005;SDS011;53704;52.532;6.426;2023-01-20T07:38:28;60.15;;;28.73;;
63005;SDS011;53704;52.532;6.426;2023-01-20T07:40:58;56.58;;;28.58;;
63005;SDS011;53704;52.532;6.426;2023-01-20T07:43:24;53.70;;;29.45;;
63005;SDS011;53704;52.532;6.426;2023-01-20T07:45:53;61.70;;;30.63;;
63005;SDS011;53704;52.532;6.426;2023-01-20T07:48:19;62.28;;;31.23;;
63005;SDS011;53704;52.532;6.426;2023-01-20T07:50:45;69.78;;;31.15;;
63005;SDS011;53704;52.532;6.426;2023-01-20T07:53:10;64.65;;;31.17;;
63005;SDS011;53704;52.532;6.426;2023-01-20T07:55:36;64.65;;;30.00;;
63005;SDS011;53704;52.532;6.426;2023-01-20T07:58:01;65.95;;;32.03;;
63005;SDS011;53704;52.532;6.426;2023-01-20T08:00:26;64.68;;;31.98;;
63005;SDS011;53704;52.532;6.426;2023-01-20T08:02:52;66.53;;;29.45;;
63005;SDS011;53704;52.532;6.426;2023-01-20T08:05:17;63.53;;;29.50;;
63005;SDS011;53704;52.532;6.426;2023-01-20T08:07:43;69.78;;;30.77;;
63005;SDS011;53704;52.532;6.426;2023-01-20T08:10:09;62.53;;;30.33;;
63005;SDS011;53704;52.532;6.426;2023-01-20T08:12:34;65.80;;;30.75;;
63005;SDS011;53704;52.532;6.426;2023-01-20T08:15:00;67.68;;;29.83;;
63005;SDS011;53704;52.532;6.426;2023-01-20T08:17:25;55.03;;;27.42;;
63005;SDS011;53704;52.532;6.426;2023-01-20T08:19:50;60.65;;;28.23;;
63005;SDS011;53704;52.532;6.426;2023-01-20T08:22:16;60.03;;;29.48;;
63005;SDS011;53704;52.532;6.426;2023-01-20T08:24:42;63.05;;;28.67;;
63005;SDS011;53704;52.532;6.426;2023-01-20T08:27:07;63.33;;;29.20;;
63005;SDS011;53704;52.532;6.426;2023-01-20T08:29:33;67.80;;;28.25;;
63005;SDS011;53704;52.532;6.426;2023-01-20T08:31:59;55.88;;;27.08;;
63005;SDS011;53704;52.532;6.426;2023-01-20T08:34:25;46.08;;;23.77;;
63005;SDS011;53704;52.532;6.426;2023-01-20T08:36:51;57.00;;;27.38;;
63005;SDS011;53704;52.532;6.426;2023-01-20T08:39:18;56.90;;;26.85;;
63005;SDS011;53704;52.532;6.426;2023-01-20T08:41:44;63.60;;;27.35;;
63005;SDS011;53704;52.532;6.426;2023-01-20T08:44:11;65.53;;;27.50;;
63005;SDS011;53704;52.532;6.426;2023-01-20T08:46:37;49.22;;;24.90;;
63005;SDS011;53704;52.532;6.426;2023-01-20T08:49:07;61.30;;;28.40;;
63005;SDS011;53704;52.532;6.426;2023-01-20T08:51:41;50.30;;;24.60;;
63005;SDS011;53704;52.532;6.426;2023-01-20T08:54:08;54.70;;;26.02;;
63005;SDS011;53704;52.532;6.426;2023-01-20T08:56:34;55.35;;;25.35;;
63005;SDS011;53704;52.532;6.426;2023-01-20T08:59:01;48.17;;;23.90;;
63005;SDS011;53704;52.532;6.426;2023-01-20T09:01:28;51.38;;;26.05;;
63005;SDS011;53704;52.532;6.426;2023-01-20T09:03:56;50.58;;;24.33;;
63005;SDS011;53704;52.532;6.426;2023-01-20T09:06:22;55.08;;;25.02;;
63005;SDS011;53704;52.532;6.426;2023-01-20T09:08:49;52.55;;;25.40;;
63005;SDS011;53704;52.532;6.426;2023-01-20T09:11:19;55.95;;;23.88;;
63005;SDS011;53704;52.532;6.426;2023-01-20T09:13:47;47.47;;;23.33;;
63005;SDS011;53704;52.532;6.426;2023-01-20T09:16:13;47.08;;;24.30;;
63005;SDS011;53704;52.532;6.426;2023-01-20T09:18:40;56.97;;;25.35;;
63005;SDS011;53704;52.532;6.426;2023-01-20T09:21:07;48.53;;;23.50;;
63005;SDS011;53704;52.532;6.426;2023-01-20T09:23:34;47.85;;;24.30;;
63005;SDS011;53704;52.532;6.426;2023-01-20T09:26:01;49.17;;;23.63;;
63005;SDS011;53704;52.532;6.426;2023-01-20T09:28:28;45.40;;;22.08;;
63005;SDS011;53704;52.532;6.426;2023-01-20T09:31:04;49.85;;;22.42;;
63005;SDS011;53704;52.532;6.426;2023-01-20T09:33:32;46.08;;;22.35;;
63005;SDS011;53704;52.532;6.426;2023-01-20T09:36:00;47.35;;;21.95;;
63005;SDS011;53704;52.532;6.426;2023-01-20T09:38:27;45.08;;;21.90;;
63005;SDS011;53704;52.532;6.426;2023-01-20T09:53:23;39.55;;;19.92;;
63005;SDS011;53704;52.532;6.426;2023-01-20T09:55:55;38.28;;;19.17;;
63005;SDS011;53704;52.532;6.426;2023-01-20T10:01:13;37.33;;;19.02;;
63005;SDS011;53704;52.532;6.426;2023-01-20T10:06:25;41.80;;;19.83;;
63005;SDS011;53704;52.532;6.426;2023-01-20T10:11:54;39.97;;;19.70;;
63005;SDS011;53704;52.532;6.426;2023-01-20T10:14:48;37.05;;;20.58;;
63005;SDS011;53704;52.532;6.426;2023-01-20T10:17:20;43.50;;;21.75;;
63005;SDS011;53704;52.532;6.426;2023-01-20T10:22:39;41.83;;;21.75;;
63005;SDS011;53704;52.532;6.426;2023-01-20T10:25:14;38.25;;;21.10;;
63005;SDS011;53704;52.532;6.426;2023-01-20T10:27:47;52.40;;;23.00;;
63005;SDS011;53704;52.532;6.426;2023-01-20T10:30:18;46.38;;;22.73;;
63005;SDS011;53704;52.532;6.426;2023-01-20T10:32:54;38.60;;;19.90;;
63005;SDS011;53704;52.532;6.426;2023-01-20T10:35:27;48.17;;;22.20;;
63005;SDS011;53704;52.532;6.426;2023-01-20T10:37:55;45.47;;;22.60;;
63005;SDS011;53704;52.532;6.426;2023-01-20T10:43:00;41.13;;;21.20;;
63005;SDS011;53704;52.532;6.426;2023-01-20T10:45:57;41.03;;;22.67;;
63005;SDS011;53704;52.532;6.426;2023-01-20T10:51:43;48.15;;;22.65;;
63005;SDS011;53704;52.532;6.426;2023-01-20T10:56:51;49.22;;;22.90;;
63005;SDS011;53704;52.532;6.426;2023-01-20T10:59:22;44.92;;;21.40;;
63005;SDS011;53704;52.532;6.426;2023-01-20T11:01:55;48.15;;;24.48;;
63005;SDS011;53704;52.532;6.426;2023-01-20T11:04:28;46.10;;;23.40;;
63005;SDS011;53704;52.532;6.426;2023-01-20T11:06:56;51.03;;;22.42;;
63005;SDS011;53704;52.532;6.426;2023-01-20T11:09:34;46.53;;;22.45;;
63005;SDS011;53704;52.532;6.426;2023-01-20T11:12:09;51.28;;;25.10;;
63005;SDS011;53704;52.532;6.426;2023-01-20T11:14:39;47.88;;;23.25;;
63005;SDS011;53704;52.532;6.426;2023-01-20T11:17:06;46.83;;;22.92;;
63005;SDS011;53704;52.532;6.426;2023-01-20T11:22:38;43.20;;;21.85;;
63005;SDS011;53704;52.532;6.426;2023-01-20T11:25:11;47.20;;;22.45;;
63005;SDS011;53704;52.532;6.426;2023-01-20T11:27:48;41.70;;;21.88;;
63005;SDS011;53704;52.532;6.426;2023-01-20T11:30:33;45.35;;;22.27;;
63005;SDS011;53704;52.532;6.426;2023-01-20T11:38:41;43.97;;;23.15;;
63005;SDS011;53704;52.532;6.426;2023-01-20T11:41:25;42.22;;;22.63;;
63005;SDS011;53704;52.532;6.426;2023-01-20T11:43:54;40.63;;;21.15;;
63005;SDS011;53704;52.532;6.426;2023-01-20T11:46:25;54.13;;;23.90;;
63005;SDS011;53704;52.532;6.426;2023-01-20T11:51:50;47.20;;;23.92;;
63005;SDS011;53704;52.532;6.426;2023-01-20T11:54:21;49.42;;;23.42;;
63005;SDS011;53704;52.532;6.426;2023-01-20T11:56:53;53.60;;;22.83;;
63005;SDS011;53704;52.532;6.426;2023-01-20T11:59:32;50.58;;;23.33;;
63005;SDS011;53704;52.532;6.426;2023-01-20T12:07:10;52.17;;;25.75;;
63005;SDS011;53704;52.532;6.426;2023-01-20T12:09:42;51.38;;;24.85;;
63005;SDS011;53704;52.532;6.426;2023-01-20T12:12:13;50.42;;;23.40;;
63005;SDS011;53704;52.532;6.426;2023-01-20T12:15:14;52.08;;;23.83;;
63005;SDS011;53704;52.532;6.426;2023-01-20T12:17:57;53.00;;;24.38;;
63005;SDS011;53704;52.532;6.426;2023-01-20T12:20:32;49.92;;;23.95;;
63005;SDS011;53704;52.532;6.426;2023-01-20T12:25:26;49.80;;;24.70;;
63005;SDS011;53704;52.532;6.426;2023-01-20T12:27:56;48.05;;;23.50;;
63005;SDS011;53704;52.532;6.426;2023-01-20T12:33:03;47.53;;;24.48;;
63005;SDS011;53704;52.532;6.426;2023-01-20T12:35:36;51.97;;;23.88;;
63005;SDS011;53704;52.532;6.426;2023-01-20T12:38:10;50.03;;;24.10;;
63005;SDS011;53704;52.532;6.426;2023-01-20T12:40:46;51.25;;;23.30;;
63005;SDS011;53704;52.532;6.426;2023-01-20T13:10:59;51.88;;;25.77;;
63005;SDS011;53704;52.532;6.426;2023-01-20T13:13:38;54.28;;;23.52;;
63005;SDS011;53704;52.532;6.426;2023-01-20T13:21:39;53.13;;;25.15;;
63005;SDS011;53704;52.532;6.426;2023-01-20T13:24:06;50.67;;;25.80;;
63005;SDS011;53704;52.532;6.426;2023-01-20T13:26:42;50.08;;;25.00;;
63005;SDS011;53704;52.532;6.426;2023-01-20T13:29:21;54.30;;;25.90;;
63005;SDS011;53704;52.532;6.426;2023-01-20T13:34:52;55.20;;;26.25;;
63005;SDS011;53704;52.532;6.426;2023-01-20T13:37:22;43.15;;;22.55;;
63005;SDS011;53704;52.532;6.426;2023-01-20T13:39:48;45.67;;;24.15;;
63005;SDS011;53704;52.532;6.426;2023-01-20T13:47:55;39.40;;;21.73;;
63005;SDS011;53704;52.532;6.426;2023-01-20T13:50:39;42.80;;;20.10;;
63005;SDS011;53704;52.532;6.426;2023-01-20T13:58:22;44.50;;;22.77;;
63005;SDS011;53704;52.532;6.426;2023-01-20T14:01:01;46.85;;;23.52;;
63005;SDS011;53704;52.532;6.426;2023-01-20T14:03:29;41.85;;;22.95;;
63005;SDS011;53704;52.532;6.426;2023-01-20T14:08:38;41.67;;;22.02;;
63005;SDS011;53704;52.532;6.426;2023-01-20T14:13:40;40.10;;;22.30;;
63005;SDS011;53704;52.532;6.426;2023-01-20T14:16:17;44.42;;;22.52;;
63005;SDS011;53704;52.532;6.426;2023-01-20T14:18:46;44.85;;;23.73;;
63005;SDS011;53704;52.532;6.426;2023-01-20T14:21:20;42.45;;;21.30;;
63005;SDS011;53704;52.532;6.426;2023-01-20T14:23:48;45.22;;;22.55;;
63005;SDS011;53704;52.532;6.426;2023-01-20T14:26:19;34.63;;;20.77;;
63005;SDS011;53704;52.532;6.426;2023-01-20T14:28:51;33.95;;;20.88;;
63005;SDS011;53704;52.532;6.426;2023-01-20T14:33:58;41.65;;;21.58;;
63005;SDS011;53704;52.532;6.426;2023-01-20T14:36:28;40.75;;;22.90;;
63005;SDS011;53704;52.532;6.426;2023-01-20T14:38:57;35.63;;;21.08;;
63005;SDS011;53704;52.532;6.426;2023-01-20T14:43:50;41.72;;;22.45;;
63005;SDS011;53704;52.532;6.426;2023-01-20T14:46:16;39.80;;;21.05;;
63005;SDS011;53704;52.532;6.426;2023-01-20T14:48:42;37.15;;;20.77;;
63005;SDS011;53704;52.532;6.426;2023-01-20T14:51:08;30.45;;;20.23;;
63005;SDS011;53704;52.532;6.426;2023-01-20T14:53:34;32.25;;;18.55;;
63005;SDS011;53704;52.532;6.426;2023-01-20T14:58:31;35.00;;;19.88;;
63005;SDS011;53704;52.532;6.426;2023-01-20T15:01:01;32.10;;;18.90;;
63005;SDS011;53704;52.532;6.426;2023-01-20T15:03:28;41.55;;;20.92;;
63005;SDS011;53704;52.532;6.426;2023-01-20T15:08:26;34.38;;;19.98;;
63005;SDS011;53704;52.532;6.426;2023-01-20T15:16:17;31.73;;;20.20;;
63005;SDS011;53704;52.532;6.426;2023-01-20T15:21:39;34.15;;;19.98;;
63005;SDS011;53704;52.532;6.426;2023-01-20T15:24:13;32.42;;;20.33;;
63005;SDS011;53704;52.532;6.426;2023-01-20T15:26:40;35.63;;;21.35;;
63005;SDS011;53704;52.532;6.426;2023-01-20T15:29:40;32.28;;;20.73;;
63005;SDS011;53704;52.532;6.426;2023-01-20T15:32:01;40.80;;;21.45;;
63005;SDS011;53704;52.532;6.426;2023-01-20T15:34:33;38.15;;;21.15;;
63005;SDS011;53704;52.532;6.426;2023-01-20T15:36:58;40.60;;;22.10;;
63005;SDS011;53704;52.532;6.426;2023-01-20T15:39:25;39.03;;;22.83;;
63005;SDS011;53704;52.532;6.426;2023-01-20T15:41:58;37.22;;;20.52;;
63005;SDS011;53704;52.532;6.426;2023-01-20T15:44:24;33.95;;;21.17;;
63005;SDS011;53704;52.532;6.426;2023-01-20T15:46:50;36.45;;;22.10;;
63005;SDS011;53704;52.532;6.426;2023-01-20T15:49:16;47.88;;;24.08;;
63005;SDS011;53704;52.532;6.426;2023-01-20T15:51:42;41.03;;;23.08;;
63005;SDS011;53704;52.532;6.426;2023-01-20T15:54:09;39.03;;;22.77;;
63005;SDS011;53704;52.532;6.426;2023-01-20T15:56:35;41.28;;;24.70;;
63005;SDS011;53704;52.532;6.426;2023-01-20T15:59:13;40.53;;;24.35;;
63005;SDS011;53704;52.532;6.426;2023-01-20T16:01:41;44.50;;;24.33;;
63005;SDS011;53704;52.532;6.426;2023-01-20T16:04:07;43.38;;;24.05;;
63005;SDS011;53704;52.532;6.426;2023-01-20T16:06:34;50.90;;;24.52;;
63005;SDS011;53704;52.532;6.426;2023-01-20T16:08:59;35.30;;;23.63;;
63005;SDS011;53704;52.532;6.426;2023-01-20T16:11:26;46.90;;;25.17;;
63005;SDS011;53704;52.532;6.426;2023-01-20T16:13:51;51.17;;;26.40;;
63005;SDS011;53704;52.532;6.426;2023-01-20T16:16:18;39.10;;;23.48;;
63005;SDS011;53704;52.532;6.426;2023-01-20T16:18:45;45.00;;;26.42;;
63005;SDS011;53704;52.532;6.426;2023-01-20T16:21:12;49.63;;;24.95;;
63005;SDS011;53704;52.532;6.426;2023-01-20T16:23:39;48.67;;;26.17;;
63005;SDS011;53704;52.532;6.426;2023-01-20T16:26:21;44.63;;;26.33;;
63005;SDS011;53704;52.532;6.426;2023-01-20T16:28:50;48.30;;;25.98;;
63005;SDS011;53704;52.532;6.426;2023-01-20T16:31:17;54.17;;;27.80;;
63005;SDS011;53704;52.532;6.426;2023-01-20T16:33:43;49.60;;;26.08;;
63005;SDS011;53704;52.532;6.426;2023-01-20T16:36:12;51.17;;;26.70;;
63005;SDS011;53704;52.532;6.426;2023-01-20T16:38:39;42.85;;;25.83;;
63005;SDS011;53704;52.532;6.426;2023-01-20T16:41:06;57.42;;;27.45;;
63005;SDS011;53704;52.532;6.426;2023-01-20T16:43:38;54.15;;;28.58;;
63005;SDS011;53704;52.532;6.426;2023-01-20T16:46:17;49.45;;;27.38;;
63005;SDS011;53704;52.532;6.426;2023-01-20T16:48:44;53.95;;;27.95;;
63005;SDS011;53704;52.532;6.426;2023-01-20T16:51:13;53.28;;;27.98;;
63005;SDS011;53704;52.532;6.426;2023-01-20T16:53:40;49.85;;;27.98;;
63005;SDS011;53704;52.532;6.426;2023-01-20T16:56:11;56.63;;;27.67;;
63005;SDS011;53704;52.532;6.426;2023-01-20T16:58:48;56.58;;;28.25;;
63005;SDS011;53704;52.532;6.426;2023-01-20T17:01:15;56.88;;;30.90;;
63005;SDS011;53704;52.532;6.426;2023-01-20T17:03:45;55.42;;;29.10;;
63005;SDS011;53704;52.532;6.426;2023-01-20T17:06:12;60.15;;;30.77;;
63005;SDS011;53704;52.532;6.426;2023-01-20T17:08:43;58.92;;;30.58;;
63005;SDS011;53704;52.532;6.426;2023-01-20T17:11:16;62.10;;;32.20;;
63005;SDS011;53704;52.532;6.426;2023-01-20T17:13:42;63.30;;;32.38;;
63005;SDS011;53704;52.532;6.426;2023-01-20T17:16:07;69.57;;;32.28;;